createdAt,value
2019-04-13T00:02:03.954Z,10.57
2019-04-13T00:04:52.923Z,10.30
2019-04-13T00:07:23.791Z,10.87
2019-04-13T00:09:53.758Z,10.57
2019-04-13T00:12:28.999Z,9.10
2019-04-13T00:14:59.625Z,11.80
2019-04-13T00:17:30.044Z,10.53
2019-04-13T00:20:00.237Z,11.73
2019-04-13T00:22:30.395Z,10.90
2019-04-13T00:25:01.239Z,10.73
2019-04-13T00:27:31.201Z,10.53
2019-04-13T00:30:01.375Z,10.50
2019-04-13T00:32:34.802Z,11.83
2019-04-13T00:35:05.163Z,11.37
2019-04-13T00:37:35.238Z,10.63
2019-04-13T00:40:05.994Z,10.57
2019-04-13T00:42:36.006Z,11.70
2019-04-13T00:45:06.610Z,10.40
2019-04-13T00:47:37.234Z,10.93
2019-04-13T00:50:08.024Z,12.17
2019-04-13T00:52:38.335Z,11.77
2019-04-13T00:55:08.502Z,12.50
2019-04-13T00:57:38.465Z,11.10
2019-04-13T01:00:09.614Z,12.07
2019-04-13T01:02:39.815Z,11.97
2019-04-13T01:05:09.910Z,11.27
2019-04-13T01:07:40.168Z,12.03
2019-04-13T01:10:10.197Z,11.20
2019-04-13T01:12:40.176Z,11.77
2019-04-13T01:15:10.413Z,11.73
2019-04-13T01:17:40.649Z,12.57
2019-04-13T01:20:10.638Z,13.03
2019-04-13T01:22:40.832Z,14.53
2019-04-13T01:25:11.268Z,12.07
2019-04-13T01:27:41.286Z,13.43
2019-04-13T01:30:11.678Z,11.63
2019-04-13T01:32:41.606Z,13.33
2019-04-13T01:35:11.596Z,14.03
2019-04-13T01:37:41.986Z,12.97
2019-04-13T01:40:12.189Z,11.60
2019-04-13T01:42:42.185Z,11.77
2019-04-13T01:45:12.158Z,14.27
2019-04-13T01:47:42.088Z,12.37
2019-04-13T01:50:12.217Z,14.00
2019-04-13T01:52:45.215Z,12.60
2019-04-13T01:55:15.166Z,13.00
2019-04-13T01:57:45.864Z,13.93
2019-04-13T02:00:18.005Z,12.80
2019-04-13T02:02:50.241Z,13.30
2019-04-13T02:05:39.361Z,13.43
2019-04-13T02:08:21.143Z,11.60
2019-04-13T02:10:52.421Z,12.97
2019-04-13T02:13:22.617Z,13.17
2019-04-13T02:15:52.528Z,12.57
2019-04-13T02:18:22.585Z,13.13
2019-04-13T02:20:52.543Z,13.43
2019-04-13T02:23:22.465Z,12.87
2019-04-13T02:25:52.538Z,13.23
2019-04-13T02:28:22.494Z,13.00
2019-04-13T02:30:52.685Z,12.83
2019-04-13T02:33:22.920Z,13.67
2019-04-13T02:35:52.916Z,12.57
2019-04-13T02:38:23.238Z,12.90
2019-04-13T02:40:53.240Z,13.43
2019-04-13T02:43:23.454Z,13.40
2019-04-13T02:45:53.423Z,13.20
2019-04-13T02:48:23.442Z,13.90
2019-04-13T02:50:53.786Z,13.20
2019-04-13T02:53:23.702Z,13.27
2019-04-13T02:55:53.608Z,14.63
2019-04-13T02:58:23.513Z,13.17
2019-04-13T03:00:53.431Z,13.97
2019-04-13T03:03:23.700Z,14.67
2019-04-13T03:05:54.484Z,13.10
2019-04-13T03:08:24.537Z,13.43
2019-04-13T03:10:54.571Z,13.93
2019-04-13T03:13:24.799Z,13.73
2019-04-13T03:16:16.583Z,12.03
2019-04-13T03:19:04.103Z,13.47
2019-04-13T03:21:34.257Z,14.23
2019-04-13T03:24:04.448Z,14.13
2019-04-13T03:26:34.752Z,12.77
2019-04-13T03:29:04.776Z,13.03
2019-04-13T03:31:34.828Z,12.97
2019-04-13T03:34:04.769Z,12.00
2019-04-13T03:36:38.206Z,14.03
2019-04-13T03:39:08.846Z,12.77
2019-04-13T03:41:39.085Z,14.53
2019-04-13T03:44:09.403Z,14.20
2019-04-13T03:46:40.089Z,13.40
2019-04-13T03:49:10.123Z,13.27
2019-04-13T03:51:40.054Z,13.50
2019-04-13T03:54:10.486Z,12.47
2019-04-13T03:56:40.345Z,11.57
2019-04-13T03:59:12.815Z,12.50
2019-04-13T04:01:45.462Z,13.47
2019-04-13T04:04:14.456Z,13.60
2019-04-13T04:06:44.647Z,12.87
2019-04-13T04:09:14.692Z,12.83
2019-04-13T04:11:44.674Z,12.63
2019-04-13T04:14:15.126Z,14.50
2019-04-13T04:16:45.334Z,13.20
2019-04-13T04:19:15.674Z,12.73
2019-04-13T04:21:45.816Z,13.03
2019-04-13T04:24:15.860Z,12.60
2019-04-13T04:26:45.807Z,12.73
2019-04-13T04:29:16.278Z,11.93
2019-04-13T04:31:46.265Z,12.47
2019-04-13T04:34:18.048Z,12.90
2019-04-13T04:36:48.605Z,13.17
2019-04-13T04:39:18.874Z,12.50
2019-04-13T04:41:48.907Z,11.67
2019-04-13T04:44:18.925Z,13.97
2019-04-13T04:46:48.992Z,11.23
2019-04-13T04:49:19.238Z,11.77
2019-04-13T04:51:49.210Z,11.20
2019-04-13T04:54:19.698Z,11.10
2019-04-13T04:56:49.614Z,12.13
2019-04-13T04:59:19.597Z,11.93
2019-04-13T05:01:49.487Z,11.70
2019-04-13T05:04:19.647Z,11.27
2019-04-13T05:06:50.059Z,11.20
2019-04-13T05:09:19.972Z,11.70
2019-04-13T05:11:49.939Z,12.20
2019-04-13T05:14:20.129Z,10.83
2019-04-13T05:16:50.462Z,11.70
2019-04-13T05:19:21.000Z,11.73
2019-04-13T05:21:51.535Z,11.57
2019-04-13T05:24:21.575Z,11.17
2019-04-13T05:26:51.581Z,10.90
2019-04-13T05:29:23.256Z,10.63
2019-04-13T05:31:53.659Z,11.07
2019-04-13T05:34:23.656Z,10.83
2019-04-13T05:36:53.916Z,10.20
2019-04-13T05:39:24.835Z,11.50
2019-04-13T05:41:55.258Z,10.40
2019-04-13T05:44:25.164Z,10.10
2019-04-13T05:46:55.570Z,10.33
2019-04-13T05:49:26.764Z,11.17
2019-04-13T05:51:56.888Z,10.00
2019-04-13T05:54:27.068Z,11.40
2019-04-13T05:56:57.112Z,10.17
2019-04-13T05:59:27.935Z,10.70
2019-04-13T06:01:58.125Z,11.07
2019-04-13T06:04:28.023Z,11.23
2019-04-13T06:07:00.221Z,10.13
2019-04-13T06:09:30.678Z,11.43
2019-04-13T06:12:00.818Z,10.73
2019-04-13T06:14:31.216Z,10.83
2019-04-13T06:17:01.143Z,11.97
2019-04-13T06:19:31.086Z,10.73
2019-04-13T06:22:01.289Z,10.73
2019-04-13T06:24:32.306Z,11.03
2019-04-13T06:27:02.428Z,9.90
2019-04-13T06:29:35.961Z,8.93
2019-04-13T06:32:27.704Z,11.03
2019-04-13T06:35:14.688Z,10.50
2019-04-13T06:37:48.218Z,10.57
2019-04-13T06:40:16.677Z,10.43
2019-04-13T06:42:49.876Z,11.37
2019-04-13T06:45:19.965Z,9.37
2019-04-13T06:47:50.125Z,10.67
2019-04-13T06:50:20.430Z,10.70
2019-04-13T06:52:50.635Z,12.77
2019-04-13T06:55:20.768Z,9.53
2019-04-13T06:57:50.666Z,12.37
2019-04-13T07:00:20.907Z,11.37
2019-04-13T07:02:51.124Z,9.77
2019-04-13T07:05:21.356Z,10.23
2019-04-13T07:08:02.938Z,9.60
2019-04-13T07:10:50.151Z,9.70
2019-04-13T07:13:46.134Z,9.80
2019-04-13T07:16:22.977Z,10.50
2019-04-13T07:18:52.978Z,9.80
2019-04-13T07:21:23.177Z,9.07
2019-04-13T07:23:53.097Z,9.70
2019-04-13T07:26:23.222Z,10.63
2019-04-13T07:28:53.403Z,10.67
2019-04-13T07:31:23.332Z,10.43
2019-04-13T07:33:53.276Z,10.20
2019-04-13T07:36:23.218Z,10.43
2019-04-13T07:38:53.842Z,10.67
2019-04-13T07:41:24.084Z,10.50
2019-04-13T07:43:54.148Z,9.73
2019-04-13T07:46:31.592Z,9.20
2019-04-13T07:49:13.653Z,9.60
2019-04-13T07:51:53.741Z,10.03
2019-04-13T07:54:23.888Z,10.43
2019-04-13T07:56:53.786Z,10.60
2019-04-13T07:59:23.726Z,9.57
2019-04-13T08:01:56.900Z,10.67
2019-04-13T08:04:25.807Z,10.53
2019-04-13T08:06:56.181Z,9.93
2019-04-13T08:09:26.167Z,9.50
2019-04-13T08:12:51.834Z,10.17
2019-04-13T08:15:22.710Z,9.07
2019-04-13T08:17:53.709Z,10.53
2019-04-13T08:20:30.348Z,9.00
2019-04-13T08:23:01.809Z,9.70
2019-04-13T08:25:31.654Z,10.47
2019-04-13T08:28:01.860Z,10.20
2019-04-13T08:30:35.882Z,10.50
2019-04-13T08:33:05.782Z,9.67
2019-04-13T08:35:36.275Z,9.90
2019-04-13T08:38:13.228Z,10.30
2019-04-13T08:40:38.390Z,10.40
2019-04-13T08:43:08.320Z,10.93
2019-04-13T08:45:38.767Z,10.07
2019-04-13T08:48:09.044Z,12.07
2019-04-13T08:58:15.216Z,10.53
2019-04-13T09:02:02.411Z,11.30
2019-04-13T09:04:23.835Z,9.47
2019-04-13T09:06:54.609Z,11.87
2019-04-13T09:09:25.458Z,9.87
2019-04-13T09:11:56.166Z,9.53
2019-04-13T09:14:29.202Z,11.13
2019-04-13T09:16:58.663Z,10.30
2019-04-13T09:19:44.184Z,10.80
2019-04-13T09:22:22.777Z,13.03
2019-04-13T09:24:53.946Z,10.63
2019-04-13T09:27:24.773Z,10.13
2019-04-13T09:29:54.989Z,11.90
2019-04-13T09:32:25.025Z,10.27
2019-04-13T09:34:55.093Z,10.67
2019-04-13T09:37:25.478Z,10.47
2019-04-13T09:39:55.688Z,9.57
2019-04-13T09:42:25.949Z,10.77
2019-04-13T09:44:55.875Z,11.57
2019-04-13T09:47:28.007Z,11.50
2019-04-13T09:49:59.982Z,11.33
2019-04-13T09:52:31.642Z,10.87
2019-04-13T09:55:01.797Z,11.47
2019-04-13T09:57:31.857Z,9.63
2019-04-13T10:00:02.099Z,11.77
2019-04-13T10:02:33.323Z,10.03
2019-04-13T10:05:03.330Z,9.23
2019-04-13T10:07:33.595Z,10.20
2019-04-13T10:10:03.621Z,9.73
2019-04-13T10:12:47.165Z,8.80
2019-04-13T10:15:39.455Z,9.90
2019-04-13T10:18:17.827Z,9.27
2019-04-13T10:20:47.799Z,11.00
2019-04-13T10:23:17.888Z,10.33
2019-04-13T10:25:47.857Z,9.23
2019-04-13T10:28:18.106Z,8.73
2019-04-13T10:30:51.611Z,8.30
2019-04-13T10:33:19.839Z,7.70
2019-04-13T10:35:49.791Z,9.60
2019-04-13T10:38:19.693Z,8.47
2019-04-13T10:40:50.241Z,8.40
2019-04-13T10:43:20.504Z,8.17
2019-04-13T10:46:20.043Z,9.33
2019-04-13T10:49:02.977Z,9.43
2019-04-13T10:51:44.070Z,8.70
2019-04-13T10:54:14.533Z,11.03
2019-04-13T10:56:45.173Z,8.57
2019-04-13T10:59:15.102Z,8.10
2019-04-13T11:01:45.175Z,7.90
2019-04-13T11:04:15.120Z,7.93
2019-04-13T11:06:45.121Z,8.50
2019-04-13T11:09:21.738Z,9.20
2019-04-13T11:11:47.874Z,8.87
2019-04-13T11:14:17.866Z,9.67
2019-04-13T11:16:47.787Z,8.50
2019-04-13T11:19:18.445Z,7.40
2019-04-13T11:21:48.369Z,7.10
2019-04-13T11:24:18.441Z,8.07
2019-04-13T11:26:51.473Z,7.97
2019-04-13T11:29:20.624Z,7.00
2019-04-13T11:31:54.750Z,8.80
2019-04-13T11:34:22.240Z,7.87
2019-04-13T11:36:52.892Z,8.47
2019-04-13T11:39:33.419Z,8.10
2019-04-13T11:42:12.076Z,8.33
2019-04-13T11:44:50.509Z,8.73
2019-04-13T11:47:45.683Z,9.00
2019-04-13T11:50:20.708Z,10.70
2019-04-13T11:52:50.685Z,8.27
2019-04-13T11:55:20.899Z,9.47
2019-04-13T11:57:51.100Z,8.33
2019-04-13T12:00:40.355Z,8.17
2019-04-13T12:03:30.007Z,8.80
2019-04-13T12:06:05.591Z,7.90
2019-04-13T12:08:46.108Z,8.67
2019-04-13T12:11:30.915Z,8.63
2019-04-13T12:14:06.515Z,8.80
2019-04-13T12:16:48.054Z,9.93
2019-04-13T12:19:46.267Z,9.47
2019-04-13T12:22:23.697Z,9.20
2019-04-13T12:24:54.568Z,9.13
2019-04-13T12:27:25.122Z,9.90
2019-04-13T12:29:55.518Z,9.57
2019-04-13T12:32:27.911Z,10.17
2019-04-13T12:34:58.438Z,10.73
2019-04-13T12:37:28.899Z,9.77
2019-04-13T12:40:04.326Z,9.50
2019-04-13T12:42:34.531Z,10.60
2019-04-13T12:45:04.933Z,10.47
2019-04-13T12:47:34.818Z,11.43
2019-04-13T12:50:06.177Z,10.87
2019-04-13T12:52:36.223Z,10.47
2019-04-13T12:55:06.842Z,12.00
2019-04-13T12:57:36.782Z,10.60
2019-04-13T13:00:09.728Z,11.20
2019-04-13T13:02:43.485Z,11.07
2019-04-13T13:05:16.621Z,10.57
2019-04-13T13:07:46.601Z,10.40
2019-04-13T13:10:17.087Z,10.30
2019-04-13T13:12:47.318Z,10.20
2019-04-13T13:15:17.378Z,11.97
2019-04-13T13:17:47.683Z,11.37
2019-04-13T13:20:18.146Z,10.70
2019-04-13T13:22:48.326Z,9.40
2019-04-13T13:25:18.275Z,10.33
2019-04-13T13:27:48.312Z,9.90
2019-04-13T13:30:20.006Z,10.10
2019-04-13T13:32:53.277Z,10.43
2019-04-13T13:35:23.188Z,11.70
2019-04-13T13:37:53.391Z,10.77
2019-04-13T13:40:30.885Z,10.33
2019-04-13T13:42:55.585Z,10.07
2019-04-13T13:45:26.200Z,10.23
2019-04-13T13:47:56.234Z,10.00
2019-04-13T13:50:26.509Z,10.50
2019-04-13T13:52:56.946Z,10.30
2019-04-13T13:55:26.961Z,9.50
2019-04-13T13:58:10.609Z,11.60
2019-04-13T14:00:58.522Z,10.57
2019-04-13T14:03:28.596Z,11.67
2019-04-13T14:05:59.295Z,10.73
2019-04-13T14:08:29.900Z,11.03
2019-04-13T14:10:59.922Z,10.10
2019-04-13T14:13:29.955Z,10.57
2019-04-13T14:16:00.482Z,10.40
2019-04-13T14:18:30.824Z,10.23
2019-04-13T14:21:00.722Z,10.17
2019-04-13T14:23:30.727Z,10.77
2019-04-13T14:26:00.693Z,9.70
2019-04-13T14:28:30.641Z,10.17
2019-04-13T14:31:00.579Z,10.17
2019-04-13T14:33:30.683Z,9.80
2019-04-13T14:36:00.619Z,9.63
2019-04-13T14:38:30.513Z,9.30
2019-04-13T14:41:00.476Z,10.20
2019-04-13T14:43:40.928Z,9.73
2019-04-13T14:46:11.772Z,9.97
2019-04-13T14:48:42.429Z,10.53
2019-04-13T14:51:12.413Z,11.27
2019-04-13T14:53:46.230Z,8.50
2019-04-13T14:56:14.597Z,9.63
2019-04-13T14:58:45.823Z,10.00
2019-04-13T15:01:16.696Z,9.27
2019-04-13T15:03:46.610Z,10.27
2019-04-13T15:06:18.124Z,9.33
2019-04-13T15:08:48.792Z,10.07
2019-04-13T15:11:19.018Z,9.17
2019-04-13T15:13:49.504Z,9.17
2019-04-13T15:16:22.804Z,8.90
2019-04-13T15:18:56.704Z,9.07
2019-04-13T15:21:30.248Z,10.40
2019-04-13T15:23:59.968Z,9.50
2019-04-13T15:26:30.274Z,10.33
2019-04-13T15:29:03.082Z,9.47
2019-04-13T15:31:37.636Z,9.03
2019-04-13T15:34:08.005Z,9.53
2019-04-13T15:36:38.326Z,8.93
2019-04-13T15:39:20.608Z,9.70
2019-04-13T15:42:07.868Z,10.70
2019-04-13T15:44:31.268Z,9.80
2019-04-13T15:47:07.123Z,11.60
2019-04-13T15:49:35.917Z,11.37
2019-04-13T15:52:06.493Z,10.20
2019-04-13T15:54:37.200Z,10.37
2019-04-13T15:57:09.812Z,9.70
2019-04-13T15:59:39.431Z,11.13
2019-04-13T16:02:10.271Z,9.93
2019-04-13T16:04:43.902Z,10.77
2019-04-13T16:07:13.793Z,9.87
2019-04-13T16:10:18.402Z,9.60
2019-04-13T16:12:52.128Z,9.37
2019-04-13T16:15:25.054Z,10.40
2019-04-13T16:17:56.058Z,10.13
2019-04-13T16:20:27.159Z,9.50
2019-04-13T16:22:57.902Z,10.70
2019-04-13T16:25:30.559Z,9.57
2019-04-13T16:28:13.687Z,9.57
2019-04-13T16:31:03.015Z,8.80
2019-04-13T16:34:01.482Z,9.00
2019-04-13T16:36:38.068Z,9.73
2019-04-13T16:39:13.494Z,8.80
2019-04-13T16:41:40.140Z,8.50
2019-04-13T16:44:24.102Z,8.57
2019-04-13T16:46:59.759Z,8.40
2019-04-13T16:49:58.722Z,9.73
2019-04-13T16:52:44.942Z,9.77
2019-04-13T16:55:26.536Z,9.27
2019-04-13T16:58:03.043Z,9.50
2019-04-13T17:00:50.198Z,9.67
2019-04-13T17:03:41.346Z,10.30
2019-04-13T17:06:11.697Z,9.17
2019-04-13T17:08:42.177Z,8.63
2019-04-13T17:11:12.110Z,8.90
2019-04-13T17:13:43.027Z,9.30
2019-04-13T17:16:13.458Z,8.77
2019-04-13T17:18:59.042Z,8.13
2019-04-13T17:21:48.103Z,9.17
2019-04-13T17:24:46.721Z,7.97
2019-04-13T17:27:40.135Z,7.97
2019-04-13T17:30:26.169Z,7.63
2019-04-13T17:33:19.173Z,8.23
2019-04-13T17:35:51.095Z,8.77
2019-04-13T17:38:22.025Z,8.37
2019-04-13T17:41:14.318Z,9.57
2019-04-13T17:43:59.545Z,11.50
2019-04-13T17:46:42.950Z,10.63
2019-04-13T17:49:32.005Z,10.07
2019-04-13T17:52:34.118Z,9.23
2019-04-13T17:55:27.630Z,9.80
2019-04-13T17:58:12.199Z,9.40
2019-04-13T18:01:00.375Z,9.40
2019-04-13T18:03:51.459Z,8.30
2019-04-13T18:06:50.967Z,8.93
2019-04-13T18:09:39.442Z,9.63
2019-04-13T18:12:22.024Z,10.17
2019-04-13T18:14:58.875Z,9.70
2019-04-13T18:17:41.724Z,9.93
2019-04-13T18:20:13.624Z,9.33
2019-04-13T18:22:44.128Z,10.03
2019-04-13T18:25:17.610Z,10.33
2019-04-13T18:27:49.166Z,11.07
2019-04-13T18:30:28.753Z,8.63
2019-04-13T18:32:51.574Z,9.73
2019-04-13T18:35:21.793Z,10.57
2019-04-13T18:37:51.830Z,10.00
2019-04-13T18:40:22.246Z,10.53
2019-04-13T18:43:03.285Z,10.60
2019-04-13T18:45:24.436Z,11.77
2019-04-13T18:47:55.633Z,11.60
2019-04-13T18:50:26.794Z,11.17
2019-04-13T18:52:57.438Z,12.10
2019-04-13T18:55:28.401Z,11.27
2019-04-13T18:57:59.084Z,10.73
2019-04-13T19:00:30.002Z,9.80
2019-04-13T19:03:00.674Z,12.57
2019-04-13T19:05:30.709Z,11.20
2019-04-13T19:08:01.039Z,12.40
2019-04-13T19:10:31.503Z,11.77
2019-04-13T19:13:04.052Z,12.27
2019-04-13T19:15:33.673Z,11.70
2019-04-13T19:18:03.771Z,12.90
2019-04-13T19:20:34.135Z,11.93
2019-04-13T19:23:04.438Z,11.33
2019-04-13T19:25:34.360Z,11.33
2019-04-13T19:28:04.996Z,11.87
2019-04-13T19:30:35.371Z,13.30
2019-04-13T19:33:06.946Z,11.57
2019-04-13T19:35:37.055Z,11.90
2019-04-13T19:38:07.690Z,13.37
2019-04-13T19:40:37.681Z,12.23
2019-04-13T19:43:16.215Z,10.90
2019-04-13T19:45:39.819Z,11.90
2019-04-13T19:48:09.783Z,10.90
2019-04-13T19:50:39.711Z,12.20
2019-04-13T19:53:27.853Z,11.83
2019-04-13T19:55:59.513Z,12.37
2019-04-13T19:58:29.498Z,11.23
2019-04-13T20:01:01.366Z,11.30
2019-04-13T20:03:31.611Z,12.10
2019-04-13T20:06:04.325Z,11.33
2019-04-13T20:08:36.429Z,11.47
2019-04-13T20:11:06.734Z,11.70
2019-04-13T20:13:49.143Z,12.03
2019-04-13T20:16:08.538Z,10.87
2019-04-13T20:18:38.639Z,12.10
2019-04-13T20:21:08.823Z,11.20
2019-04-13T20:23:39.139Z,11.10
2019-04-13T20:26:09.992Z,11.30
2019-04-13T20:28:40.472Z,11.30
2019-04-13T20:31:11.604Z,10.83
2019-04-13T20:33:42.126Z,9.23
2019-04-13T20:36:16.359Z,10.13
2019-04-13T20:38:45.274Z,10.53
2019-04-13T20:41:21.640Z,11.13
2019-04-13T20:43:59.550Z,10.60
2019-04-13T20:46:23.618Z,11.40
2019-04-13T20:48:53.899Z,10.90
2019-04-13T20:51:24.142Z,10.10
2019-04-13T20:53:54.188Z,10.73
2019-04-13T20:56:25.087Z,10.70
2019-04-13T20:58:55.477Z,10.60
2019-04-13T21:01:25.874Z,10.60
2019-04-13T21:03:56.075Z,11.60
2019-04-13T21:06:26.160Z,11.57
2019-04-13T21:08:57.679Z,10.57
2019-04-13T21:11:27.819Z,11.17
2019-04-13T21:14:08.391Z,11.37
2019-04-13T21:16:30.016Z,11.77
2019-04-13T21:19:00.374Z,11.50
2019-04-13T21:21:30.687Z,12.43
2019-04-13T21:24:00.636Z,12.53
2019-04-13T21:26:30.615Z,12.23
2019-04-13T21:29:00.644Z,12.67
2019-04-13T21:31:30.753Z,10.80
2019-04-13T21:34:00.744Z,11.53
2019-04-13T21:36:30.662Z,11.63
2019-04-13T21:39:00.690Z,12.13
2019-04-13T21:41:30.675Z,11.17
2019-04-13T21:44:13.362Z,13.53
2019-04-13T21:46:32.744Z,13.27
2019-04-13T21:49:05.315Z,12.67
2019-04-13T21:52:00.369Z,14.10
2019-04-13T21:54:34.532Z,12.03
2019-04-13T21:57:04.934Z,13.17
2019-04-13T21:59:36.967Z,12.57
2019-04-13T22:02:16.228Z,12.60
2019-04-13T22:04:47.849Z,12.70
2019-04-13T22:07:18.097Z,13.53
2019-04-13T22:09:49.886Z,13.97
2019-04-13T22:12:20.072Z,13.20
2019-04-13T22:14:56.669Z,14.50
2019-04-13T22:17:23.096Z,12.83
2019-04-13T22:19:55.090Z,13.30
2019-04-13T22:22:25.127Z,13.40
2019-04-13T22:24:55.214Z,12.77
2019-04-13T22:27:27.506Z,12.63
2019-04-13T22:29:57.791Z,13.30
2019-04-13T22:32:39.112Z,13.13
2019-04-13T22:35:24.046Z,13.00
2019-04-13T22:37:56.013Z,14.43
2019-04-13T22:40:25.978Z,12.87
2019-04-13T22:42:56.488Z,12.23
2019-04-13T22:45:27.823Z,12.67
2019-04-13T22:48:07.002Z,14.07
2019-04-13T22:50:56.842Z,13.10
2019-04-13T22:53:46.047Z,13.97
2019-04-13T22:56:37.658Z,13.83
2019-04-13T22:59:08.099Z,13.83
2019-04-13T23:01:42.009Z,12.80
2019-04-13T23:04:14.593Z,13.20
2019-04-13T23:06:44.879Z,12.67
2019-04-13T23:09:15.565Z,14.00
2019-04-13T23:11:45.545Z,13.97
2019-04-13T23:14:15.700Z,12.63
2019-04-13T23:16:47.807Z,11.97
2019-04-13T23:19:17.797Z,14.00
2019-04-13T23:21:48.434Z,12.57
2019-04-13T23:24:19.210Z,13.63
2019-04-13T23:26:49.548Z,13.97
2019-04-13T23:29:19.438Z,13.60
2019-04-13T23:31:49.819Z,14.87
2019-04-13T23:34:22.500Z,14.63
2019-04-13T23:36:53.008Z,14.77
2019-04-13T23:39:23.483Z,14.73
2019-04-13T23:41:56.082Z,14.13
2019-04-13T23:44:26.874Z,13.10
2019-04-13T23:46:56.889Z,13.80
2019-04-13T23:49:27.733Z,14.97
2019-04-13T23:51:58.236Z,13.30
2019-04-13T23:54:30.450Z,14.10
2019-04-13T23:57:07.942Z,14.50
2019-04-13T23:59:43.606Z,13.20
